Time;durP1;ratioP1;P1;durP2;ratioP2;P2;SDS_P1;SDS_P2;PMS_P1;PMS_P2;Temp;Humidity;BMP_temperature;BMP_pressure;BME280_temperature;BME280_humidity;BME280_pressure;Samples;Min_cycle;Max_cycle;Signal;HPM_P1;HPM_P2
2022/05/10 04:02:09;;;;;;;18.80;3.77;;;7.50;96.30;;;;;;5163249;23;20506;-76
2022/05/10 04:04:35;;;;;;;7.63;3.80;;;7.70;96.30;;;;;;4954625;29;20471;-76
2022/05/10 04:07:00;;;;;;;7.40;3.90;;;7.80;96.30;;;;;;4954227;29;20410;-74
2022/05/10 04:09:26;;;;;;;6.90;4.30;;;8.00;96.30;;;;;;4961159;28;20197;-76
2022/05/10 04:11:51;;;;;;;14.40;4.00;;;8.30;96.30;;;;;;4959389;28;20217;-76
2022/05/10 04:14:17;;;;;;;5.00;3.80;;;8.90;96.30;;;;;;4974214;28;20178;-72
2022/05/10 04:16:42;;;;;;;6.67;3.70;;;9.10;96.30;;;;;;4974883;28;20166;-73
2022/05/10 04:19:08;;;;;;;10.23;4.20;;;9.10;96.30;;;;;;4972690;28;20182;-72
2022/05/10 04:26:45;;;;;;;10.87;4.17;;;10.00;96.30;;;;;;5149298;23;20960;-73
2022/05/10 04:29:10;;;;;;;5.40;3.23;;;10.80;96.30;;;;;;4972680;28;20432;-73
2022/05/10 04:31:36;;;;;;;10.27;3.27;;;11.60;96.30;;;;;;5299808;23;20222;-73
2022/05/10 04:34:01;;;;;;;8.53;3.20;;;12.20;96.30;;;;;;4972462;28;20170;-74
2022/05/10 04:36:27;;;;;;;5.23;2.97;;;13.10;96.30;;;;;;4972682;28;20646;-73
2022/05/10 04:38:52;;;;;;;11.60;3.40;;;13.80;96.30;;;;;;4973402;28;20167;-73
2022/05/10 04:54:15;;;;;;;4.67;3.20;;;16.60;96.30;;;;;;5672763;23;20484;-77
2022/05/10 04:56:41;;;;;;;9.10;3.17;;;16.90;96.30;;;;;;4972972;28;20819;-76
2022/05/10 04:59:06;;;;;;;8.13;3.27;;;17.30;95.70;;;;;;4972123;28;20174;-76
2022/05/10 05:01:32;;;;;;;6.20;2.67;;;17.30;95.80;;;;;;4973412;28;20518;-76
2022/05/10 05:04:00;;;;;;;9.30;2.67;;;17.90;94.30;;;;;;4967332;28;20183;-76
2022/05/10 05:06:26;;;;;;;8.47;2.97;;;17.80;93.20;;;;;;4960808;28;20210;-76
2022/05/10 05:08:52;;;;;;;5.13;2.63;;;17.90;92.70;;;;;;4957594;29;20410;-78
2022/05/10 05:11:17;;;;;;;4.87;3.60;;;18.20;91.90;;;;;;4961922;28;20221;-76
2022/05/10 05:13:43;;;;;;;3.73;2.90;;;18.40;91.00;;;;;;4963536;28;20410;-76
2022/05/10 05:16:08;;;;;;;7.10;3.53;;;18.00;91.90;;;;;;4957946;29;20650;-76
2022/05/10 05:18:34;;;;;;;6.60;2.73;;;17.50;94.30;;;;;;4957361;29;20167;-76
2022/05/10 05:20:59;;;;;;;13.80;3.13;;;16.60;96.30;;;;;;4958459;29;20557;-76
2022/05/10 05:23:25;;;;;;;3.90;2.70;;;15.90;96.30;;;;;;4961232;28;20193;-76
2022/05/10 05:25:53;;;;;;;5.90;3.10;;;15.30;96.30;;;;;;4958323;29;20178;-76
2022/05/10 05:28:19;;;;;;;4.13;2.90;;;14.80;96.30;;;;;;4965514;28;20201;-76
2022/05/10 05:30:45;;;;;;;8.63;3.00;;;14.70;96.30;;;;;;4969311;28;20440;-76
2022/05/10 05:33:11;;;;;;;8.80;2.90;;;15.20;96.30;;;;;;4978148;28;20212;-76
2022/05/10 05:35:37;;;;;;;8.90;3.07;;;16.50;96.30;;;;;;4970941;28;21408;-76
2022/05/10 05:38:03;;;;;;;6.77;3.30;;;17.00;96.30;;;;;;4964249;28;20433;-77
2022/05/10 05:40:29;;;;;;;6.03;3.20;;;18.10;94.70;;;;;;4994040;28;20234;-73
2022/05/10 05:42:55;;;;;;;10.87;3.60;;;18.80;91.80;;;;;;4983923;28;20455;-74
2022/05/10 05:45:23;;;;;;;5.00;2.77;;;19.20;90.40;;;;;;4984479;28;20194;-75
2022/05/10 05:47:50;;;;;;;6.30;3.00;;;19.90;88.70;;;;;;4981110;28;20739;-76
2022/05/10 05:50:17;;;;;;;7.37;2.77;;;20.20;87.90;;;;;;4975547;28;20500;-76
2022/05/10 05:52:43;;;;;;;4.80;2.93;;;20.30;87.90;;;;;;4971514;28;20476;-76
2022/05/10 05:55:10;;;;;;;4.20;2.73;;;20.50;88.10;;;;;;4962461;28;20469;-76
2022/05/10 05:57:36;;;;;;;4.13;2.60;;;21.30;85.00;;;;;;4956040;29;20410;-76
2022/05/10 06:00:06;;;;;;;6.20;3.10;;;20.90;86.10;;;;;;4967535;28;20425;-77
2022/05/10 06:02:31;;;;;;;6.53;2.87;;;21.50;85.80;;;;;;4976123;28;20487;-76
2022/05/10 06:04:57;;;;;;;3.40;2.47;;;22.20;85.10;;;;;;4976124;28;20417;-76
2022/05/10 06:07:22;;;;;;;5.90;2.60;;;23.10;83.50;;;;;;4976075;28;20209;-75
2022/05/10 06:09:48;;;;;;;3.37;2.43;;;23.30;81.30;;;;;;4975883;28;20177;-76
2022/05/10 06:12:16;;;;;;;3.73;2.60;;;23.80;81.70;;;;;;4964638;28;20296;-76
2022/05/10 06:14:42;;;;;;;4.33;2.47;;;24.60;79.10;;;;;;4956923;29;20556;-76
2022/05/10 06:17:09;;;;;;;7.73;3.37;;;24.60;77.20;;;;;;4956367;28;20421;-76
2022/05/10 06:19:37;;;;;;;10.07;2.37;;;25.00;77.10;;;;;;4939189;29;20189;-76
2022/05/10 06:22:03;;;;;;;2.57;2.37;;;25.70;75.20;;;;;;4956628;29;20441;-78
2022/05/10 06:24:29;;;;;;;2.50;2.30;;;25.90;74.20;;;;;;4956567;29;20824;-76
2022/05/10 06:26:54;;;;;;;2.90;2.20;;;25.80;73.60;;;;;;4956606;29;20429;-76
2022/05/10 06:29:20;;;;;;;6.33;2.30;;;26.30;73.00;;;;;;4955813;29;20193;-77
2022/05/10 06:31:47;;;;;;;7.23;2.93;;;26.70;73.60;;;;;;4939369;29;20207;-77
2022/05/10 06:34:14;;;;;;;3.00;2.37;;;27.40;72.60;;;;;;4956381;29;20261;-77
2022/05/10 06:36:40;;;;;;;3.60;2.50;;;27.60;72.20;;;;;;4956232;29;20425;-76
2022/05/10 06:39:06;;;;;;;3.80;2.30;;;28.40;70.60;;;;;;4938812;29;20505;-77
2022/05/10 06:41:32;;;;;;;3.53;2.40;;;29.10;67.20;;;;;;4956022;29;20197;-77
2022/05/10 06:43:58;;;;;;;5.90;2.30;;;29.20;65.60;;;;;;4965072;28;20433;-77
2022/05/10 06:46:24;;;;;;;4.70;2.42;;;30.10;66.00;;;;;;4956162;29;20178;-77
2022/05/10 06:48:50;;;;;;;4.93;2.60;;;30.50;65.00;;;;;;4955777;29;20225;-76
2022/05/10 06:51:19;;;;;;;5.97;2.30;;;30.20;65.90;;;;;;4956016;29;20214;-76
2022/05/10 06:53:44;;;;;;;2.63;2.42;;;29.80;65.90;;;;;;4955858;29;20201;-77
2022/05/10 06:56:11;;;;;;;3.08;2.60;;;30.30;65.00;;;;;;4955832;29;20178;-75
2022/05/10 06:58:37;;;;;;;6.45;2.38;;;30.10;64.30;;;;;;4955621;29;20206;-76
2022/05/10 07:01:05;;;;;;;4.40;2.58;;;29.40;66.50;;;;;;4955768;29;20297;-76
2022/05/10 07:03:33;;;;;;;5.47;1.83;;;29.30;65.90;;;;;;4955698;29;20183;-76
2022/05/10 07:06:01;;;;;;;5.30;2.40;;;30.00;65.70;;;;;;4955680;29;20186;-76
2022/05/10 07:08:27;;;;;;;4.95;2.08;;;29.40;65.90;;;;;;4955494;29;20186;-77
2022/05/10 07:10:53;;;;;;;2.72;2.53;;;29.40;66.30;;;;;;4955361;29;20210;-78
2022/05/10 07:13:23;;;;;;;5.22;2.60;;;30.50;67.50;;;;;;4955612;29;20626;-74
2022/05/10 07:15:48;;;;;;;2.60;2.40;;;30.30;64.90;;;;;;4955488;29;20634;-74
2022/05/10 07:18:14;;;;;;;3.08;2.78;;;30.40;66.70;;;;;;4937722;29;20193;-74
2022/05/10 07:20:41;;;;;;;3.13;2.60;;;30.60;66.10;;;;;;4955500;29;20194;-74
2022/05/10 07:23:07;;;;;;;3.75;2.60;;;30.50;64.70;;;;;;4955466;29;20178;-74
2022/05/10 07:25:32;;;;;;;3.55;2.83;;;30.90;66.90;;;;;;4955662;29;20273;-74
2022/05/10 07:27:58;;;;;;;4.82;2.85;;;30.60;66.80;;;;;;4954392;28;20205;-74
2022/05/10 07:30:25;;;;;;;5.18;2.95;;;30.30;63.30;;;;;;4955332;29;20179;-74
2022/05/10 07:32:51;;;;;;;4.75;2.40;;;30.40;68.40;;;;;;4955334;29;20244;-77
2022/05/10 07:36:23;;;;;;;7.22;2.28;;;30.50;68.20;;;;;;4955361;29;20856;-74
2022/05/10 07:38:08;;;;;;;3.65;2.42;;;30.10;68.90;;;;;;4954541;29;20182;-77
2022/05/10 07:40:34;;;;;;;8.82;2.65;;;30.40;69.10;;;;;;4954603;29;20198;-74
2022/05/10 07:42:59;;;;;;;4.35;2.35;;;30.50;67.00;;;;;;4955098;29;20240;-74
2022/05/10 07:45:25;;;;;;;3.45;2.70;;;29.90;66.40;;;;;;4957687;28;20663;-73
2022/05/10 07:47:50;;;;;;;5.03;2.85;;;30.00;66.90;;;;;;4954919;29;20182;-74
2022/05/10 07:50:17;;;;;;;2.97;2.58;;;30.10;63.60;;;;;;4954970;29;20265;-74
2022/05/10 07:52:43;;;;;;;4.90;2.80;;;30.30;66.40;;;;;;4954815;29;20209;-74
2022/05/10 07:55:09;;;;;;;5.78;2.72;;;30.60;69.40;;;;;;4937584;29;20186;-74
2022/05/10 07:57:34;;;;;;;5.22;2.58;;;29.90;66.00;;;;;;4954577;29;20237;-74
2022/05/10 08:00:00;;;;;;;3.63;2.75;;;30.30;66.00;;;;;;4954869;28;20178;-74
2022/05/10 08:02:25;;;;;;;5.78;2.75;;;30.10;69.60;;;;;;4954592;29;20202;-74
2022/05/10 08:04:51;;;;;;;3.23;2.87;;;30.10;66.80;;;;;;4952140;28;20280;-74
2022/05/10 08:07:16;;;;;;;5.78;2.42;;;30.60;67.40;;;;;;4974017;28;20185;-74
2022/05/10 08:09:42;;;;;;;3.23;2.70;;;31.00;62.80;;;;;;4973728;28;20540;-73
2022/05/10 08:12:08;;;;;;;3.70;2.50;;;30.80;65.20;;;;;;4973664;28;20205;-74
2022/05/10 08:14:33;;;;;;;4.80;2.80;;;30.60;65.50;;;;;;4973848;28;20173;-74
2022/05/10 08:16:59;;;;;;;4.37;2.70;;;31.30;67.70;;;;;;4961513;28;20685;-74
2022/05/10 08:19:25;;;;;;;5.33;2.77;;;31.00;63.90;;;;;;4965816;28;20205;-75
2022/05/10 08:21:55;;;;;;;2.70;2.50;;;30.60;62.20;;;;;;4973876;28;20201;-73
2022/05/10 08:24:21;;;;;;;3.20;2.83;;;30.80;64.90;;;;;;4974005;28;20280;-74
2022/05/10 08:26:47;;;;;;;5.40;2.83;;;30.50;67.40;;;;;;4973905;28;20417;-76
2022/05/10 08:29:12;;;;;;;2.70;2.50;;;30.80;65.30;;;;;;4974002;28;20764;-75
2022/05/10 08:31:40;;;;;;;3.37;2.50;;;30.80;63.70;;;;;;4973646;28;20213;-75
2022/05/10 08:34:06;;;;;;;8.27;3.27;;;29.50;66.10;;;;;;4973887;28;20749;-75
2022/05/10 08:36:31;;;;;;;5.33;2.80;;;27.70;69.50;;;;;;4973847;28;20503;-74
2022/05/10 08:38:57;;;;;;;15.83;2.80;;;26.30;71.90;;;;;;4957025;28;20190;-75
2022/05/10 08:41:32;;;;;;;4.20;2.90;;;27.10;73.20;;;;;;4954289;29;20198;-75
2022/05/10 08:44:25;;;;;;;7.00;3.30;;;27.90;75.30;;;;;;4954288;29;20200;-75
2022/05/10 08:47:03;;;;;;;6.70;3.17;;;28.10;68.70;;;;;;4951465;29;20565;-75
2022/05/10 08:50:00;;;;;;;3.50;3.20;;;26.70;71.50;;;;;;4953175;28;20914;-75
2022/05/10 08:52:39;;;;;;;5.30;3.20;;;24.60;74.00;;;;;;4958053;28;20473;-75
2022/05/10 08:55:08;;;;;;;4.13;2.70;;;24.20;76.90;;;;;;4954053;29;20470;-74
2022/05/10 08:57:48;;;;;;;7.20;2.80;;;24.90;81.60;;;;;;4970073;28;20908;-75
2022/05/10 09:00:40;;;;;;;3.10;2.77;;;25.30;80.20;;;;;;4973444;28;20902;-75
2022/05/10 09:03:28;;;;;;;4.53;3.10;;;25.40;76.40;;;;;;4955081;29;20509;-76
2022/05/10 09:06:01;;;;;;;2.87;2.60;;;25.00;77.80;;;;;;4954434;29;20472;-75
2022/05/10 09:08:37;;;;;;;5.50;2.83;;;24.20;79.20;;;;;;4936651;29;20425;-74
2022/05/10 09:11:05;;;;;;;4.00;2.90;;;24.00;78.40;;;;;;4953858;29;20531;-74
2022/05/10 09:13:31;;;;;;;6.77;3.50;;;25.40;80.30;;;;;;4953986;29;20410;-74
2022/05/10 09:16:06;;;;;;;5.07;2.87;;;25.90;77.40;;;;;;4954137;29;20413;-75
2022/05/10 09:18:40;;;;;;;3.03;2.43;;;25.00;77.50;;;;;;4953668;29;20434;-74
2022/05/10 09:21:23;;;;;;;3.30;3.00;;;23.80;80.90;;;;;;4954237;29;20899;-75
2022/05/10 09:24:21;;;;;;;7.50;3.10;;;23.40;83.00;;;;;;4954094;29;20414;-76
2022/05/10 09:26:50;;;;;;;7.90;4.03;;;24.00;82.90;;;;;;4954420;29;20446;-74
2022/05/10 09:29:29;;;;;;;3.33;2.93;;;24.50;80.80;;;;;;4954166;29;20422;-75
2022/05/10 09:34:46;;;;;;;7.00;2.80;;;26.00;78.50;;;;;;4967045;28;20449;-75
2022/05/10 09:37:33;;;;;;;4.37;3.07;;;26.80;75.00;;;;;;4958728;28;20425;-75
2022/05/10 09:39:58;;;;;;;8.07;3.00;;;26.80;72.20;;;;;;4954272;29;20409;-75
2022/05/10 09:42:37;;;;;;;2.70;2.50;;;26.40;73.00;;;;;;4958191;28;20437;-74
2022/05/10 09:45:14;;;;;;;5.73;3.07;;;25.50;75.80;;;;;;4973115;28;20205;-75
2022/05/10 09:47:52;;;;;;;3.30;3.00;;;24.60;77.80;;;;;;4936339;29;20422;-75
2022/05/10 09:50:20;;;;;;;5.27;2.90;;;24.10;79.40;;;;;;4954041;28;20409;-74
2022/05/10 09:52:47;;;;;;;4.57;2.73;;;23.90;80.60;;;;;;4948232;28;20472;-75
2022/05/10 09:55:26;;;;;;;6.73;2.90;;;23.70;76.00;;;;;;4973666;28;20436;-74
2022/05/10 09:57:52;;;;;;;5.93;2.60;;;25.20;83.50;;;;;;4958818;28;20417;-74
2022/05/10 10:00:40;;;;;;;8.23;3.13;;;25.30;81.20;;;;;;4976180;28;20421;-75
2022/05/10 10:03:06;;;;;;;4.37;1.93;;;25.30;72.70;;;;;;4976436;28;20472;-75
2022/05/10 10:05:36;;;;;;;3.40;2.23;;;25.90;75.60;;;;;;4976283;28;20417;-75
2022/05/10 10:08:02;;;;;;;2.73;2.10;;;26.00;75.00;;;;;;4976126;28;20166;-74
2022/05/10 10:10:36;;;;;;;2.13;1.80;;;27.00;72.20;;;;;;4976235;28;21015;-75
2022/05/10 10:13:29;;;;;;;5.80;2.43;;;27.70;65.80;;;;;;4976058;28;20924;-75
2022/05/10 10:15:55;;;;;;;3.70;2.53;;;27.60;70.90;;;;;;4976147;28;20437;-75
2022/05/10 10:18:51;;;;;;;4.57;2.43;;;28.00;67.60;;;;;;4975874;28;20489;-75
2022/05/10 10:21:49;;;;;;;4.80;2.73;;;27.90;69.80;;;;;;4976460;28;20425;-74
2022/05/10 10:24:24;;;;;;;5.73;2.50;;;27.30;73.80;;;;;;4976525;28;20428;-75
2022/05/10 10:26:53;;;;;;;2.47;2.20;;;26.20;70.10;;;;;;4975635;28;20409;-75
2022/05/10 10:29:32;;;;;;;2.67;2.20;;;25.50;74.00;;;;;;4974791;28;20519;-75
2022/05/10 10:32:45;;;;;;;3.30;2.20;;;25.30;74.30;;;;;;4974922;28;20464;-75
2022/05/10 10:35:17;;;;;;;2.20;2.07;;;26.10;68.00;;;;;;4939130;28;21171;-75
2022/05/10 10:37:54;;;;;;;5.00;2.43;;;27.40;70.70;;;;;;4958087;28;20413;-75
2022/05/10 10:40:36;;;;;;;3.27;2.40;;;27.50;70.40;;;;;;4964017;28;20766;-75
2022/05/10 10:43:10;;;;;;;2.90;2.37;;;27.50;68.50;;;;;;4956477;29;20398;-75
2022/05/10 10:45:41;;;;;;;3.87;2.40;;;27.40;71.60;;;;;;4957220;29;20413;-75
2022/05/10 10:48:45;;;;;;;3.43;2.30;;;27.40;64.50;;;;;;4956638;29;20414;-75
2022/05/10 10:51:12;;;;;;;4.17;2.43;;;25.60;71.00;;;;;;4956235;29;20969;-75
2022/05/10 10:53:39;;;;;;;10.60;2.50;;;24.90;72.60;;;;;;4956257;29;20449;-75
2022/05/10 10:56:40;;;;;;;3.17;2.60;;;24.50;78.40;;;;;;4956037;29;20890;-74
2022/05/10 10:59:27;;;;;;;3.80;2.63;;;23.90;76.00;;;;;;4955846;28;20414;-75
2022/05/10 11:02:12;;;;;;;2.50;2.07;;;23.80;77.40;;;;;;4974996;28;20441;-75
2022/05/10 11:04:55;;;;;;;7.20;2.70;;;24.40;77.80;;;;;;4974913;28;20417;-75
2022/05/10 11:07:44;;;;;;;4.73;2.67;;;24.90;76.50;;;;;;4973842;28;20420;-74
2022/05/10 11:10:23;;;;;;;2.70;2.37;;;25.20;75.60;;;;;;4958428;28;20430;-76
2022/05/10 11:13:01;;;;;;;10.13;2.93;;;25.00;73.10;;;;;;4955777;29;20493;-74
2022/05/10 11:15:45;;;;;;;7.67;2.50;;;25.00;73.40;;;;;;4955573;29;20608;-74
2022/05/10 11:18:28;;;;;;;5.43;2.40;;;25.50;75.60;;;;;;4955318;29;20445;-75
2022/05/10 11:21:27;;;;;;;2.70;2.20;;;26.80;77.70;;;;;;4938330;29;20946;-76
2022/05/10 11:24:30;;;;;;;3.60;2.40;;;26.90;74.60;;;;;;4957929;28;20761;-75
2022/05/10 11:27:31;;;;;;;4.40;2.60;;;27.70;73.00;;;;;;4956793;28;20436;-75
2022/05/10 11:30:04;;;;;;;4.50;2.10;;;28.40;69.30;;;;;;4955560;29;20401;-75
2022/05/10 11:33:01;;;;;;;5.70;2.17;;;27.60;68.90;;;;;;4957658;28;20473;-75
2022/05/10 11:35:46;;;;;;;3.80;2.57;;;28.00;73.30;;;;;;4955345;29;20968;-76
2022/05/10 11:38:19;;;;;;;6.20;2.20;;;28.10;66.50;;;;;;4954710;29;21087;-75
2022/05/10 11:40:53;;;;;;;4.47;2.40;;;28.20;62.90;;;;;;4962353;28;20438;-76
2022/05/10 11:43:56;;;;;;;6.03;2.40;;;28.40;71.60;;;;;;4955157;29;20496;-76
2022/05/10 11:46:40;;;;;;;3.07;1.90;;;28.40;68.40;;;;;;4950871;28;20420;-75
2022/05/10 11:49:25;;;;;;;7.13;2.47;;;29.00;66.00;;;;;;4974074;28;20533;-75
2022/05/10 11:52:08;;;;;;;5.50;1.93;;;29.00;66.10;;;;;;4974390;28;20460;-76
2022/05/10 11:55:02;;;;;;;3.83;2.40;;;28.90;62.20;;;;;;4973657;28;20796;-76
2022/05/10 11:57:31;;;;;;;9.90;2.50;;;28.20;67.60;;;;;;4969429;28;20410;-76
2022/05/10 12:00:25;;;;;;;3.17;2.10;;;28.30;66.30;;;;;;4954726;28;20434;-76
2022/05/10 12:02:51;;;;;;;4.97;2.30;;;28.20;64.60;;;;;;4954693;29;20501;-76
2022/05/10 12:05:27;;;;;;;2.90;2.30;;;27.00;61.70;;;;;;4954767;29;20450;-75
2022/05/10 12:08:04;;;;;;;5.60;2.23;;;27.10;65.60;;;;;;4954244;29;20170;-76
2022/05/10 12:10:37;;;;;;;6.70;1.90;;;27.30;63.30;;;;;;4954374;29;20897;-77
2022/05/10 12:22:51;;;;;;;4.43;2.10;;;25.40;70.00;;;;;;4954436;29;20449;-76
2022/05/10 12:25:55;;;;;;;5.90;2.10;;;26.30;70.00;;;;;;4954422;29;20413;-77
2022/05/10 12:28:43;;;;;;;3.80;2.20;;;26.10;70.70;;;;;;4954226;29;20413;-75
2022/05/10 12:31:25;;;;;;;3.03;1.90;;;26.30;69.20;;;;;;4954076;29;20798;-76
2022/05/10 12:33:59;;;;;;;2.30;2.10;;;26.70;71.10;;;;;;4937135;29;20425;-77
2022/05/10 12:36:32;;;;;;;4.23;2.10;;;26.10;69.80;;;;;;4954116;29;20419;-76
2022/05/10 12:39:22;;;;;;;4.87;2.07;;;25.90;69.80;;;;;;4953819;29;20422;-75
2022/05/10 12:41:49;;;;;;;3.00;2.00;;;25.70;71.30;;;;;;4953915;29;20434;-75
2022/05/10 12:44:50;;;;;;;4.60;2.20;;;25.30;72.80;;;;;;4954039;29;20424;-75
2022/05/10 12:47:34;;;;;;;2.47;1.83;;;25.00;69.50;;;;;;4953947;29;20505;-76
2022/05/10 12:50:19;;;;;;;2.47;2.20;;;26.00;71.30;;;;;;4954039;29;20500;-76
2022/05/10 12:52:47;;;;;;;5.13;2.07;;;26.70;67.30;;;;;;4954047;29;20465;-76
2022/05/10 12:55:20;;;;;;;3.67;2.17;;;26.70;67.40;;;;;;4953878;29;20507;-75
2022/05/10 12:57:57;;;;;;;2.33;2.13;;;26.80;71.10;;;;;;4953682;29;20493;-75
2022/05/10 13:00:35;;;;;;;2.90;2.20;;;27.50;66.00;;;;;;4953729;29;20410;-76
2022/05/10 13:03:08;;;;;;;5.50;2.40;;;27.10;63.30;;;;;;4953972;29;20414;-75
2022/05/10 13:05:52;;;;;;;3.83;2.43;;;26.30;64.10;;;;;;4953932;29;20921;-76
2022/05/10 13:08:46;;;;;;;2.20;2.00;;;26.10;68.10;;;;;;4954167;29;20438;-75
2022/05/10 13:11:13;;;;;;;2.30;2.10;;;26.30;64.40;;;;;;4936560;29;20498;-76
2022/05/10 13:13:39;;;;;;;7.60;2.20;;;26.40;67.00;;;;;;4953740;29;20410;-76
2022/05/10 13:16:14;;;;;;;2.40;2.00;;;27.10;68.00;;;;;;4953694;29;20410;-75
2022/05/10 13:18:41;;;;;;;2.70;1.97;;;27.10;68.00;;;;;;4953567;29;20500;-76
2022/05/10 13:21:07;;;;;;;2.73;2.53;;;26.70;67.40;;;;;;4953704;29;20461;-74
2022/05/10 13:23:34;;;;;;;5.47;2.43;;;25.90;69.00;;;;;;4941275;28;20801;-76
2022/05/10 13:26:06;;;;;;;2.47;2.10;;;25.80;66.20;;;;;;4964495;28;20541;-75
2022/05/10 13:28:32;;;;;;;2.57;2.27;;;25.90;68.50;;;;;;4957356;29;20472;-75
2022/05/10 13:30:59;;;;;;;5.13;3.03;;;26.10;65.70;;;;;;4957195;29;20441;-75
2022/05/10 13:33:33;;;;;;;4.13;2.30;;;26.10;67.80;;;;;;4957376;29;20174;-75
2022/05/10 13:36:09;;;;;;;3.00;2.50;;;25.30;65.10;;;;;;4957496;29;20412;-75
2022/05/10 13:38:50;;;;;;;8.33;2.90;;;24.90;71.20;;;;;;4939822;29;20421;-75
2022/05/10 13:41:29;;;;;;;6.67;2.03;;;24.50;72.90;;;;;;4957240;29;20426;-75
2022/05/10 13:43:59;;;;;;;4.77;2.50;;;24.20;74.20;;;;;;4957420;29;20894;-75
2022/05/10 13:46:27;;;;;;;6.60;2.87;;;24.30;71.80;;;;;;4957077;29;20415;-75
2022/05/10 13:49:00;;;;;;;2.90;2.33;;;24.70;73.00;;;;;;4956972;29;20940;-75
2022/05/10 13:51:33;;;;;;;2.07;1.80;;;25.40;76.50;;;;;;4957035;29;20458;-75
2022/05/10 13:54:23;;;;;;;3.40;2.07;;;25.50;75.70;;;;;;4957031;29;20922;-75
2022/05/10 13:56:49;;;;;;;3.70;2.50;;;25.70;67.50;;;;;;4957005;29;20947;-75
2022/05/10 13:59:28;;;;;;;9.03;2.53;;;25.70;68.20;;;;;;4956917;29;20501;-75
2022/05/10 14:01:54;;;;;;;2.73;2.20;;;25.70;69.20;;;;;;4959307;28;20471;-76
2022/05/10 14:04:20;;;;;;;6.90;2.50;;;25.60;71.10;;;;;;4947478;28;20425;-76
2022/05/10 14:06:54;;;;;;;2.70;2.50;;;25.50;68.60;;;;;;4962893;28;20469;-75
2022/05/10 14:09:26;;;;;;;2.90;2.20;;;25.20;66.90;;;;;;4970613;28;20688;-76
2022/05/10 14:11:55;;;;;;;3.37;2.50;;;25.20;67.70;;;;;;4972786;28;20468;-76
2022/05/10 14:14:26;;;;;;;5.77;2.30;;;25.70;74.90;;;;;;4965373;28;20410;-75
2022/05/10 14:16:52;;;;;;;4.07;2.60;;;26.00;76.90;;;;;;4965126;28;20417;-75
2022/05/10 14:19:33;;;;;;;4.33;2.40;;;26.00;71.50;;;;;;4949324;28;20413;-76
2022/05/10 14:22:04;;;;;;;9.63;2.40;;;26.10;69.10;;;;;;4959311;28;20865;-76
2022/05/10 14:24:31;;;;;;;4.73;3.00;;;26.10;70.20;;;;;;4956574;29;20953;-75
2022/05/10 14:27:26;;;;;;;4.70;2.43;;;25.90;70.30;;;;;;4956533;29;20406;-76
2022/05/10 14:29:57;;;;;;;5.40;2.40;;;25.80;68.80;;;;;;4923137;29;20486;-75
2022/05/10 14:32:26;;;;;;;2.73;2.33;;;26.10;68.50;;;;;;4956162;29;20458;-76
2022/05/10 14:34:53;;;;;;;2.47;2.23;;;26.40;66.30;;;;;;4968660;28;20421;-77
2022/05/10 14:37:36;;;;;;;3.17;2.27;;;26.40;67.90;;;;;;4972054;28;20760;-75
2022/05/10 14:40:26;;;;;;;2.40;2.20;;;26.20;71.90;;;;;;4963423;28;20477;-74
2022/05/10 14:42:59;;;;;;;6.30;2.20;;;26.10;72.10;;;;;;4963381;28;20452;-76
2022/05/10 14:45:24;;;;;;;5.97;2.70;;;26.00;68.70;;;;;;4964513;28;20834;-76
2022/05/10 14:47:51;;;;;;;2.60;2.13;;;26.00;68.60;;;;;;4971348;28;20870;-76
2022/05/10 14:50:37;;;;;;;5.33;2.13;;;26.20;70.00;;;;;;4972028;28;20173;-76
2022/05/10 14:53:18;;;;;;;5.07;2.30;;;25.50;71.60;;;;;;4973465;28;20462;-75
2022/05/10 14:55:47;;;;;;;7.60;2.27;;;25.40;70.70;;;;;;4974625;28;20421;-76
2022/05/10 14:58:20;;;;;;;7.60;2.20;;;25.10;70.50;;;;;;4969773;28;20410;-76
2022/05/10 15:01:00;;;;;;;4.23;1.97;;;25.20;69.70;;;;;;4960863;28;20438;-76
2022/05/10 15:03:25;;;;;;;3.97;2.10;;;25.30;68.20;;;;;;4959601;28;20777;-76
2022/05/10 15:05:52;;;;;;;8.37;2.40;;;25.30;68.30;;;;;;4973639;28;20429;-76
2022/05/10 15:08:18;;;;;;;11.27;2.10;;;25.60;71.90;;;;;;4974695;28;20227;-76
2022/05/10 15:10:48;;;;;;;4.23;2.23;;;25.90;71.70;;;;;;4974943;28;20425;-76
2022/05/10 15:13:14;;;;;;;2.77;2.00;;;25.70;70.80;;;;;;4965778;28;20916;-76
2022/05/10 15:16:01;;;;;;;4.10;2.20;;;25.70;69.80;;;;;;4956041;28;20422;-76
2022/05/10 15:21:18;;;;;;;3.83;1.93;;;24.70;71.20;;;;;;4970817;28;20422;-76
2022/05/10 15:23:43;;;;;;;2.67;2.10;;;24.70;72.40;;;;;;4960858;28;20906;-77
2022/05/10 15:26:13;;;;;;;7.03;2.30;;;24.90;71.10;;;;;;4943924;28;20428;-77
2022/05/10 15:28:41;;;;;;;12.70;2.60;;;24.80;70.10;;;;;;4972233;28;20185;-76
2022/05/10 15:31:07;;;;;;;2.87;2.57;;;24.70;73.30;;;;;;4961927;28;20438;-77
2022/05/10 15:33:32;;;;;;;4.60;2.07;;;24.60;69.80;;;;;;4957260;28;20414;-77
2022/05/10 15:35:58;;;;;;;4.33;2.20;;;24.60;69.70;;;;;;4962517;28;20174;-76
2022/05/10 15:38:24;;;;;;;4.20;2.30;;;24.90;70.80;;;;;;4973769;28;20180;-76
2022/05/10 15:40:53;;;;;;;9.93;2.50;;;25.00;73.20;;;;;;4970753;28;20185;-77
2022/05/10 15:43:19;;;;;;;2.40;2.20;;;25.10;68.70;;;;;;4970930;28;20260;-76
2022/05/10 15:45:45;;;;;;;3.57;2.20;;;25.00;71.50;;;;;;4965234;28;20413;-77
2022/05/10 15:48:13;;;;;;;9.53;2.30;;;25.10;73.00;;;;;;4955921;28;20518;-76
2022/05/10 15:50:39;;;;;;;3.37;2.10;;;25.10;71.50;;;;;;4946814;28;20229;-77
2022/05/10 15:53:05;;;;;;;2.47;2.00;;;24.80;69.40;;;;;;4962717;28;20953;-76
2022/05/10 15:55:30;;;;;;;3.43;2.10;;;24.30;70.30;;;;;;4965354;28;20447;-76
2022/05/10 15:57:57;;;;;;;4.80;2.00;;;23.70;69.30;;;;;;4964145;28;20178;-77
2022/05/10 16:00:24;;;;;;;5.10;2.07;;;23.70;72.20;;;;;;4968330;28;20177;-75
2022/05/10 16:02:51;;;;;;;2.70;1.80;;;23.70;71.50;;;;;;4965710;28;20517;-77
2022/05/10 16:05:17;;;;;;;3.07;2.20;;;23.80;73.60;;;;;;4955710;28;21267;-77
2022/05/10 16:07:43;;;;;;;2.90;1.90;;;23.50;72.90;;;;;;4963380;28;20414;-77
2022/05/10 16:10:10;;;;;;;3.30;2.20;;;23.30;71.60;;;;;;4960474;28;20186;-74
2022/05/10 16:12:38;;;;;;;3.57;2.03;;;23.30;72.20;;;;;;4959840;28;20209;-74
2022/05/10 16:15:05;;;;;;;5.63;2.63;;;23.20;73.30;;;;;;4954886;28;20899;-74
2022/05/10 16:17:31;;;;;;;4.70;2.47;;;23.00;74.20;;;;;;4957055;28;20899;-77
2022/05/10 16:19:56;;;;;;;6.67;2.00;;;23.10;75.30;;;;;;4968676;28;20413;-74
2022/05/10 16:22:22;;;;;;;3.87;2.60;;;23.10;74.90;;;;;;4973129;28;20208;-75
2022/05/10 16:24:47;;;;;;;4.67;2.83;;;23.00;77.00;;;;;;4969219;28;20178;-74
2022/05/10 16:29:57;;;;;;;3.93;2.93;;;23.10;73.60;;;;;;4976705;28;20196;-76
2022/05/10 16:45:19;;;;;;;5.37;1.87;;;;;;;;;;6095164;23;20409;-75
2022/05/10 16:47:45;;;;;;;2.17;2.00;;;22.60;78.40;;;;;;4950691;29;21287;-75
2022/05/10 16:50:12;;;;;;;7.73;2.40;;;22.50;77.40;;;;;;4952149;29;20187;-75
2022/05/10 16:52:43;;;;;;;8.73;2.53;;;22.30;78.50;;;;;;4951932;28;20470;-75
2022/05/10 16:55:10;;;;;;;2.63;2.33;;;22.30;78.00;;;;;;4958793;28;20468;-77
2022/05/10 16:57:36;;;;;;;3.37;2.30;;;22.20;77.70;;;;;;4971986;28;20413;-75
2022/05/10 17:00:06;;;;;;;4.93;2.80;;;22.20;76.00;;;;;;4971870;28;20445;-75
2022/05/10 17:02:34;;;;;;;3.77;2.50;;;22.20;76.80;;;;;;4953218;29;20698;-75
2022/05/10 17:05:06;;;;;;;6.10;2.73;;;22.10;79.60;;;;;;4953896;29;20829;-76
2022/05/10 17:07:31;;;;;;;5.97;2.37;;;22.00;78.90;;;;;;4953674;29;20419;-76
2022/05/10 17:09:57;;;;;;;6.00;2.73;;;21.90;79.20;;;;;;4968388;28;20484;-75
2022/05/10 17:12:23;;;;;;;3.43;2.70;;;21.80;78.60;;;;;;4972990;28;20296;-76
2022/05/10 17:14:48;;;;;;;2.50;2.30;;;21.80;80.10;;;;;;4973042;28;20587;-75
2022/05/10 17:17:15;;;;;;;6.53;3.07;;;21.80;78.10;;;;;;4972805;28;20187;-76
2022/05/10 17:19:42;;;;;;;3.63;3.00;;;21.70;79.50;;;;;;4971581;28;20179;-76
2022/05/10 17:22:08;;;;;;;3.70;2.70;;;21.70;79.50;;;;;;4953034;29;20446;-76
2022/05/10 17:24:33;;;;;;;9.23;2.40;;;21.50;81.50;;;;;;4953529;29;20425;-75
2022/05/10 17:27:02;;;;;;;4.37;2.63;;;21.30;82.20;;;;;;4952303;28;20206;-77
2022/05/10 17:29:31;;;;;;;4.33;2.60;;;21.40;80.80;;;;;;4953492;28;20214;-76
2022/05/10 17:31:57;;;;;;;5.70;2.37;;;21.40;77.70;;;;;;4963399;28;20992;-75
2022/05/10 17:34:23;;;;;;;3.83;2.50;;;21.30;76.10;;;;;;4955701;28;20457;-75
2022/05/10 17:36:48;;;;;;;4.70;2.00;;;21.40;79.00;;;;;;4953987;28;20178;-76
2022/05/10 17:39:16;;;;;;;6.60;2.23;;;21.40;78.70;;;;;;4959019;28;20427;-75
2022/05/10 17:41:42;;;;;;;5.43;2.73;;;21.40;78.10;;;;;;4953417;29;20606;-76
2022/05/10 17:44:08;;;;;;;5.33;2.77;;;21.40;76.30;;;;;;4955443;28;20435;-77
2022/05/10 17:46:34;;;;;;;3.10;2.80;;;21.40;78.40;;;;;;4952685;29;20809;-75
2022/05/10 17:49:00;;;;;;;4.97;2.73;;;21.30;77.10;;;;;;4952938;29;20662;-76
2022/05/10 17:51:27;;;;;;;6.83;2.53;;;21.10;81.00;;;;;;4952958;29;20794;-76
2022/05/10 17:53:55;;;;;;;4.50;2.40;;;21.00;79.70;;;;;;4953662;29;20417;-75
2022/05/10 17:56:24;;;;;;;8.93;2.90;;;20.70;80.90;;;;;;4952995;29;20419;-73
2022/05/10 17:58:50;;;;;;;3.30;2.43;;;20.70;80.70;;;;;;4953262;29;20829;-74
2022/05/10 18:01:19;;;;;;;3.60;2.50;;;20.60;81.70;;;;;;4956706;28;20508;-74